sensor_id;sensor_type;location;lat;lon;timestamp;pressure;altitude;pressure_sealevel;temperature;humidity
60725;BME280;59881;36.722;-4.462;2024-01-25T00:01:16;102792.59;;;11.51;65.36
60725;BME280;59881;36.722;-4.462;2024-01-25T00:03:41;102841.06;;;11.49;65.63
60725;BME280;59881;36.722;-4.462;2024-01-25T00:06:07;102847.91;;;11.54;66.15
60725;BME280;59881;36.722;-4.462;2024-01-25T00:08:33;102907.47;;;11.62;66.38
60725;BME280;59881;36.722;-4.462;2024-01-25T00:11:01;102778.28;;;11.57;65.92
60725;BME280;59881;36.722;-4.462;2024-01-25T00:13:27;102537.69;;;10.04;65.50
60725;BME280;59881;36.722;-4.462;2024-01-25T00:15:52;102671.91;;;10.34;65.42
60725;BME280;59881;36.722;-4.462;2024-01-25T00:18:18;102522.72;;;9.80;65.45
60725;BME280;59881;36.722;-4.462;2024-01-25T00:20:43;102759.50;;;11.17;65.57
60725;BME280;59881;36.722;-4.462;2024-01-25T00:23:09;102403.56;;;8.98;65.44
60725;BME280;59881;36.722;-4.462;2024-01-25T00:25:35;102267.19;;;8.07;65.62
60725;BME280;59881;36.722;-4.462;2024-01-25T00:28:00;102645.75;;;10.28;66.12
60725;BME280;59881;36.722;-4.462;2024-01-25T00:30:26;102154.94;;;7.31;65.95
60725;BME280;59881;36.722;-4.462;2024-01-25T00:32:51;102705.53;;;10.52;66.13
60725;BME280;59881;36.722;-4.462;2024-01-25T00:35:17;102880.56;;;10.73;66.18
60725;BME280;59881;36.722;-4.462;2024-01-25T00:37:43;102755.09;;;10.68;66.77
60725;BME280;59881;36.722;-4.462;2024-01-25T00:40:09;102455.13;;;8.74;66.78
60725;BME280;59881;36.722;-4.462;2024-01-25T00:42:41;102626.88;;;9.88;67.10
60725;BME280;59881;36.722;-4.462;2024-01-25T00:45:07;102546.97;;;9.36;66.77
60725;BME280;59881;36.722;-4.462;2024-01-25T00:47:33;102751.03;;;10.57;67.48
60725;BME280;59881;36.722;-4.462;2024-01-25T00:49:59;102661.38;;;9.51;67.33
60725;BME280;59881;36.722;-4.462;2024-01-25T00:52:26;102795.13;;;10.52;67.64
60725;BME280;59881;36.722;-4.462;2024-01-25T00:54:51;102735.53;;;10.48;67.73
60725;BME280;59881;36.722;-4.462;2024-01-25T00:57:17;102781.31;;;10.46;68.04
60725;BME280;59881;36.722;-4.462;2024-01-25T00:59:43;102537.13;;;9.15;67.99
60725;BME280;59881;36.722;-4.462;2024-01-25T01:02:11;102416.22;;;8.27;68.42
60725;BME280;59881;36.722;-4.462;2024-01-25T01:04:38;102692.66;;;10.17;68.92
60725;BME280;59881;36.722;-4.462;2024-01-25T01:07:04;102333.38;;;8.17;69.20
60725;BME280;59881;36.722;-4.462;2024-01-25T01:09:30;102643.09;;;9.74;69.39
60725;BME280;59881;36.722;-4.462;2024-01-25T01:11:55;102728.44;;;10.50;69.63
60725;BME280;59881;36.722;-4.462;2024-01-25T01:14:21;102753.00;;;10.51;69.44
60725;BME280;59881;36.722;-4.462;2024-01-25T01:16:47;102803.00;;;10.54;69.84
60725;BME280;59881;36.722;-4.462;2024-01-25T01:19:12;102509.88;;;9.17;69.88
60725;BME280;59881;36.722;-4.462;2024-01-25T01:21:39;102750.84;;;10.64;70.35
60725;BME280;59881;36.722;-4.462;2024-01-25T01:24:11;102723.31;;;10.72;70.82
60725;BME280;59881;36.722;-4.462;2024-01-25T01:26:37;102224.84;;;7.30;70.43
60725;BME280;59881;36.722;-4.462;2024-01-25T01:29:03;102746.34;;;10.67;70.50
60725;BME280;59881;36.722;-4.462;2024-01-25T01:31:29;102720.06;;;10.64;70.45
60725;BME280;59881;36.722;-4.462;2024-01-25T01:33:55;102718.22;;;10.66;71.01
60725;BME280;59881;36.722;-4.462;2024-01-25T01:36:21;102172.09;;;7.41;70.46
60725;BME280;59881;36.722;-4.462;2024-01-25T01:38:47;102390.50;;;8.68;70.93
60725;BME280;59881;36.722;-4.462;2024-01-25T01:41:13;102288.81;;;8.15;70.97
60725;BME280;59881;36.722;-4.462;2024-01-25T01:43:39;102559.84;;;9.72;70.52
60725;BME280;59881;36.722;-4.462;2024-01-25T01:48:54;102578.97;;;9.77;70.49
60725;BME280;59881;36.722;-4.462;2024-01-25T01:51:20;102231.06;;;7.26;70.45
60725;BME280;59881;36.722;-4.462;2024-01-25T01:53:46;102640.19;;;10.10;70.67
60725;BME280;59881;36.722;-4.462;2024-01-25T01:56:12;102203.41;;;7.47;70.46
60725;BME280;59881;36.722;-4.462;2024-01-25T01:58:38;101956.34;;;5.89;70.53
60725;BME280;59881;36.722;-4.462;2024-01-25T02:01:04;102122.34;;;6.78;70.77
60725;BME280;59881;36.722;-4.462;2024-01-25T02:03:30;102648.44;;;10.00;70.68
60725;BME280;59881;36.722;-4.462;2024-01-25T02:05:56;102704.47;;;10.31;71.19
60725;BME280;59881;36.722;-4.462;2024-01-25T02:08:30;102197.75;;;7.31;70.68
60725;BME280;59881;36.722;-4.462;2024-01-25T02:10:56;102623.53;;;9.83;71.56
60725;BME280;59881;36.722;-4.462;2024-01-25T02:13:22;102777.19;;;10.37;71.45
60725;BME280;59881;36.722;-4.462;2024-01-25T02:15:48;102300.66;;;7.99;71.42
60725;BME280;59881;36.722;-4.462;2024-01-25T02:18:13;102703.41;;;10.37;71.56
60725;BME280;59881;36.722;-4.462;2024-01-25T02:20:40;102698.03;;;10.40;71.94
60725;BME280;59881;36.722;-4.462;2024-01-25T02:23:06;102380.38;;;8.56;71.76
60725;BME280;59881;36.722;-4.462;2024-01-25T02:25:31;102791.94;;;10.43;72.30
60725;BME280;59881;36.722;-4.462;2024-01-25T02:27:57;101926.66;;;5.58;71.80
60725;BME280;59881;36.722;-4.462;2024-01-25T02:30:23;102419.06;;;8.79;72.16
60725;BME280;59881;36.722;-4.462;2024-01-25T02:32:48;102633.41;;;9.48;72.24
60725;BME280;59881;36.722;-4.462;2024-01-25T02:35:14;102523.56;;;9.55;72.51
60725;BME280;59881;36.722;-4.462;2024-01-25T02:37:39;102161.28;;;7.52;72.41
60725;BME280;59881;36.722;-4.462;2024-01-25T02:40:05;102562.66;;;10.18;72.11
60725;BME280;59881;36.722;-4.462;2024-01-25T02:42:31;102681.81;;;11.03;71.46
60725;BME280;59881;36.722;-4.462;2024-01-25T02:44:57;102422.72;;;9.55;70.36
60725;BME280;59881;36.722;-4.462;2024-01-25T02:47:22;102674.81;;;10.51;69.93
60725;BME280;59881;36.722;-4.462;2024-01-25T02:49:48;102683.03;;;10.92;69.68
60725;BME280;59881;36.722;-4.462;2024-01-25T02:52:13;102456.28;;;8.93;69.21
60725;BME280;59881;36.722;-4.462;2024-01-25T02:54:39;102508.38;;;9.37;69.59
60725;BME280;59881;36.722;-4.462;2024-01-25T02:57:05;102785.47;;;10.78;69.55
60725;BME280;59881;36.722;-4.462;2024-01-25T02:59:31;102673.00;;;10.79;69.79
60725;BME280;59881;36.722;-4.462;2024-01-25T03:01:57;102283.91;;;8.33;69.25
60725;BME280;59881;36.722;-4.462;2024-01-25T03:04:22;102173.91;;;7.69;69.20
60725;BME280;59881;36.722;-4.462;2024-01-25T03:06:48;102670.78;;;10.66;69.76
60725;BME280;59881;36.722;-4.462;2024-01-25T03:09:14;102676.22;;;10.62;69.87
60725;BME280;59881;36.722;-4.462;2024-01-25T03:11:40;102458.63;;;9.29;69.56
60725;BME280;59881;36.722;-4.462;2024-01-25T03:14:05;102667.78;;;10.52;70.00
60725;BME280;59881;36.722;-4.462;2024-01-25T03:16:31;102277.53;;;8.12;69.68
60725;BME280;59881;36.722;-4.462;2024-01-25T03:18:57;102596.53;;;10.03;70.14
60725;BME280;59881;36.722;-4.462;2024-01-25T03:21:22;102515.84;;;9.49;70.30
60725;BME280;59881;36.722;-4.462;2024-01-25T03:23:48;102289.69;;;8.14;70.22
60725;BME280;59881;36.722;-4.462;2024-01-25T03:26:13;102385.16;;;8.71;70.77
60725;BME280;59881;36.722;-4.462;2024-01-25T03:28:39;102413.13;;;9.00;71.21
60725;BME280;59881;36.722;-4.462;2024-01-25T03:31:06;102647.94;;;10.42;71.45
60725;BME280;59881;36.722;-4.462;2024-01-25T03:33:32;102641.97;;;10.37;71.44
60725;BME280;59881;36.722;-4.462;2024-01-25T03:36:05;102641.91;;;10.38;71.80
60725;BME280;59881;36.722;-4.462;2024-01-25T03:38:31;102333.06;;;8.57;72.03
60725;BME280;59881;36.722;-4.462;2024-01-25T03:40:57;102694.44;;;10.43;71.85
60725;BME280;59881;36.722;-4.462;2024-01-25T03:43:25;102633.94;;;10.40;71.96
60725;BME280;59881;36.722;-4.462;2024-01-25T03:45:50;102628.84;;;10.35;71.48
60725;BME280;59881;36.722;-4.462;2024-01-25T03:48:16;102645.69;;;10.29;71.74
60725;BME280;59881;36.722;-4.462;2024-01-25T03:50:41;102373.56;;;8.19;71.23
60725;BME280;59881;36.722;-4.462;2024-01-25T03:53:07;102274.06;;;8.11;71.42
60725;BME280;59881;36.722;-4.462;2024-01-25T03:55:33;102641.81;;;10.14;71.89
60725;BME280;59881;36.722;-4.462;2024-01-25T03:57:58;102651.53;;;10.12;72.11
60725;BME280;59881;36.722;-4.462;2024-01-25T04:00:24;102513.19;;;8.94;71.90
60725;BME280;59881;36.722;-4.462;2024-01-25T04:02:50;102620.28;;;10.02;71.85
60725;BME280;59881;36.722;-4.462;2024-01-25T04:05:16;102617.69;;;10.00;72.38
60725;BME280;59881;36.722;-4.462;2024-01-25T04:07:42;102207.53;;;7.54;72.07
60725;BME280;59881;36.722;-4.462;2024-01-25T04:10:07;102475.03;;;9.10;72.67
60725;BME280;59881;36.722;-4.462;2024-01-25T04:12:33;102554.06;;;9.06;72.59
60725;BME280;59881;36.722;-4.462;2024-01-25T04:14:59;102616.19;;;9.93;72.64
60725;BME280;59881;36.722;-4.462;2024-01-25T04:17:24;101902.22;;;5.59;72.37
60725;BME280;59881;36.722;-4.462;2024-01-25T04:19:50;102518.56;;;9.19;72.80
60725;BME280;59881;36.722;-4.462;2024-01-25T04:22:16;102207.03;;;7.41;72.65
60725;BME280;59881;36.722;-4.462;2024-01-25T04:24:42;102538.13;;;9.39;73.30
60725;BME280;59881;36.722;-4.462;2024-01-25T04:27:09;102611.25;;;9.82;73.32
60725;BME280;59881;36.722;-4.462;2024-01-25T04:29:38;102222.63;;;7.46;73.46
60725;BME280;59881;36.722;-4.462;2024-01-25T04:32:05;102610.88;;;9.40;73.52
60725;BME280;59881;36.722;-4.462;2024-01-25T04:34:30;102223.72;;;7.39;73.77
60725;BME280;59881;36.722;-4.462;2024-01-25T04:36:56;102540.75;;;9.39;73.97
60725;BME280;59881;36.722;-4.462;2024-01-25T04:39:21;102628.06;;;9.78;74.27
60725;BME280;59881;36.722;-4.462;2024-01-25T04:41:48;102613.91;;;9.82;74.39
60725;BME280;59881;36.722;-4.462;2024-01-25T04:44:13;102606.66;;;9.89;74.66
60725;BME280;59881;36.722;-4.462;2024-01-25T04:46:39;102526.69;;;9.11;74.99
60725;BME280;59881;36.722;-4.462;2024-01-25T04:49:04;102600.50;;;9.90;74.69
60725;BME280;59881;36.722;-4.462;2024-01-25T04:51:30;102603.94;;;9.92;75.13
60725;BME280;59881;36.722;-4.462;2024-01-25T04:53:55;102443.00;;;8.98;74.80
60725;BME280;59881;36.722;-4.462;2024-01-25T04:56:21;102603.00;;;9.93;74.83
60725;BME280;59881;36.722;-4.462;2024-01-25T04:58:46;102159.53;;;7.22;74.82
60725;BME280;59881;36.722;-4.462;2024-01-25T05:01:12;102405.25;;;8.72;74.79
60725;BME280;59881;36.722;-4.462;2024-01-25T05:03:37;102598.06;;;9.84;75.05
60725;BME280;59881;36.722;-4.462;2024-01-25T05:06:03;102503.34;;;9.29;75.29
60725;BME280;59881;36.722;-4.462;2024-01-25T05:08:29;102433.75;;;8.86;75.17
60725;BME280;59881;36.722;-4.462;2024-01-25T05:10:54;102402.75;;;8.67;74.99
60725;BME280;59881;36.722;-4.462;2024-01-25T05:13:20;102609.31;;;9.87;75.18
60725;BME280;59881;36.722;-4.462;2024-01-25T05:15:45;102605.00;;;9.86;nan
60725;BME280;59881;36.722;-4.462;2024-01-25T05:18:11;102548.13;;;9.54;75.55
60725;BME280;59881;36.722;-4.462;2024-01-25T05:20:36;102288.09;;;7.51;75.26
60725;BME280;59881;36.722;-4.462;2024-01-25T05:23:04;102423.44;;;8.19;75.30
60725;BME280;59881;36.722;-4.462;2024-01-25T05:25:30;102670.69;;;9.89;75.56
60725;BME280;59881;36.722;-4.462;2024-01-25T05:27:56;102606.66;;;9.89;75.70
60725;BME280;59881;36.722;-4.462;2024-01-25T05:30:22;102661.94;;;9.89;75.49
60725;BME280;59881;36.722;-4.462;2024-01-25T05:32:48;102417.47;;;7.84;75.43
60725;BME280;59881;36.722;-4.462;2024-01-25T05:35:15;102600.56;;;9.87;75.40
60725;BME280;59881;36.722;-4.462;2024-01-25T05:37:41;102150.22;;;7.12;75.16
60725;BME280;59881;36.722;-4.462;2024-01-25T05:40:07;102617.28;;;9.86;75.71
60725;BME280;59881;36.722;-4.462;2024-01-25T05:42:33;102604.88;;;9.89;76.01
60725;BME280;59881;36.722;-4.462;2024-01-25T05:44:58;102611.06;;;9.88;76.01
60725;BME280;59881;36.722;-4.462;2024-01-25T05:47:24;102350.72;;;7.93;75.82
60725;BME280;59881;36.722;-4.462;2024-01-25T05:49:51;102262.69;;;7.82;75.66
60725;BME280;59881;36.722;-4.462;2024-01-25T05:52:16;102177.66;;;7.30;75.36
60725;BME280;59881;36.722;-4.462;2024-01-25T05:54:42;101791.41;;;5.01;75.29
60725;BME280;59881;36.722;-4.462;2024-01-25T05:57:09;102570.47;;;9.69;75.93
60725;BME280;59881;36.722;-4.462;2024-01-25T05:59:34;102481.25;;;9.08;76.40
60725;BME280;59881;36.722;-4.462;2024-01-25T06:02:00;102602.31;;;9.88;76.00
60725;BME280;59881;36.722;-4.462;2024-01-25T06:04:26;102535.09;;;9.51;76.07
60725;BME280;59881;36.722;-4.462;2024-01-25T06:06:51;102470.00;;;9.03;75.76
60725;BME280;59881;36.722;-4.462;2024-01-25T06:09:17;102225.22;;;7.47;75.82
60725;BME280;59881;36.722;-4.462;2024-01-25T06:11:42;102237.56;;;7.74;76.16
60725;BME280;59881;36.722;-4.462;2024-01-25T06:14:08;102330.59;;;7.93;76.09
60725;BME280;59881;36.722;-4.462;2024-01-25T06:16:34;102544.47;;;9.31;76.06
60725;BME280;59881;36.722;-4.462;2024-01-25T06:19:00;102621.63;;;9.87;76.42
60725;BME280;59881;36.722;-4.462;2024-01-25T06:21:26;102168.66;;;7.39;76.07
60725;BME280;59881;36.722;-4.462;2024-01-25T06:23:52;102602.69;;;10.02;76.59
60725;BME280;59881;36.722;-4.462;2024-01-25T06:26:18;102605.19;;;10.07;76.39
60725;BME280;59881;36.722;-4.462;2024-01-25T06:28:43;102058.41;;;6.86;76.22
60725;BME280;59881;36.722;-4.462;2024-01-25T06:31:09;102607.66;;;10.11;76.21
60725;BME280;59881;36.722;-4.462;2024-01-25T06:33:35;102652.41;;;10.11;76.44
60725;BME280;59881;36.722;-4.462;2024-01-25T06:36:00;102606.78;;;10.11;76.32
60725;BME280;59881;36.722;-4.462;2024-01-25T06:38:26;102347.97;;;7.97;75.98
60725;BME280;59881;36.722;-4.462;2024-01-25T06:40:51;102373.78;;;8.42;75.97
60725;BME280;59881;36.722;-4.462;2024-01-25T06:43:17;102471.28;;;9.18;75.84
60725;BME280;59881;36.722;-4.462;2024-01-25T06:45:43;102617.59;;;10.03;75.95
60725;BME280;59881;36.722;-4.462;2024-01-25T06:48:08;102366.66;;;8.16;75.97
60725;BME280;59881;36.722;-4.462;2024-01-25T06:50:34;102431.28;;;8.20;75.72
60725;BME280;59881;36.722;-4.462;2024-01-25T06:53:00;102314.38;;;8.08;75.79
60725;BME280;59881;36.722;-4.462;2024-01-25T06:55:26;102326.06;;;7.98;76.14
60725;BME280;59881;36.722;-4.462;2024-01-25T06:57:52;102740.69;;;9.97;76.24
60725;BME280;59881;36.722;-4.462;2024-01-25T07:00:17;102426.84;;;7.93;76.03
60725;BME280;59881;36.722;-4.462;2024-01-25T07:02:44;102213.25;;;7.69;76.52
60725;BME280;59881;36.722;-4.462;2024-01-25T07:05:09;102601.88;;;10.00;76.39
60725;BME280;59881;36.722;-4.462;2024-01-25T07:07:35;101796.19;;;4.84;75.91
60725;BME280;59881;36.722;-4.462;2024-01-25T07:10:01;102294.28;;;8.07;76.40
60725;BME280;59881;36.722;-4.462;2024-01-25T07:12:26;102117.91;;;7.12;75.87
60725;BME280;59881;36.722;-4.462;2024-01-25T07:14:52;101755.78;;;4.63;75.71
60725;BME280;59881;36.722;-4.462;2024-01-25T07:17:18;102606.97;;;10.06;76.13
60725;BME280;59881;36.722;-4.462;2024-01-25T07:19:43;102613.00;;;10.10;76.79
60725;BME280;59881;36.722;-4.462;2024-01-25T07:22:09;102608.47;;;10.13;76.67
60725;BME280;59881;36.722;-4.462;2024-01-25T07:24:36;102329.84;;;8.18;76.47
60725;BME280;59881;36.722;-4.462;2024-01-25T07:27:02;102323.63;;;8.22;76.52
60725;BME280;59881;36.722;-4.462;2024-01-25T07:29:28;102831.00;;;10.28;77.13
60725;BME280;59881;36.722;-4.462;2024-01-25T07:31:54;102700.66;;;10.40;76.98
60725;BME280;59881;36.722;-4.462;2024-01-25T07:34:19;102213.41;;;8.19;76.90
60725;BME280;59881;36.722;-4.462;2024-01-25T07:36:45;102586.06;;;10.27;76.29
60725;BME280;59881;36.722;-4.462;2024-01-25T07:39:10;102481.50;;;9.53;76.25
60725;BME280;59881;36.722;-4.462;2024-01-25T07:41:37;102614.63;;;12.01;77.72
60725;BME280;59881;36.722;-4.462;2024-01-25T07:44:02;102606.22;;;13.11;76.45
60725;BME280;59881;36.722;-4.462;2024-01-25T07:46:28;102327.75;;;13.06;72.97
60725;BME280;59881;36.722;-4.462;2024-01-25T07:48:53;102309.97;;;13.76;68.28
60725;BME280;59881;36.722;-4.462;2024-01-25T07:51:19;102588.25;;;16.75;63.74
60725;BME280;59881;36.722;-4.462;2024-01-25T07:53:44;102626.22;;;18.29;58.37
60725;BME280;59881;36.722;-4.462;2024-01-25T07:56:10;102601.84;;;18.97;53.77
60725;BME280;59881;36.722;-4.462;2024-01-25T07:58:36;102139.94;;;16.53;50.38
60725;BME280;59881;36.722;-4.462;2024-01-25T08:01:05;102572.41;;;20.40;48.17
60725;BME280;59881;36.722;-4.462;2024-01-25T08:03:32;102432.00;;;20.33;45.96
60725;BME280;59881;36.722;-4.462;2024-01-25T08:06:02;102571.13;;;21.88;43.83
60725;BME280;59881;36.722;-4.462;2024-01-25T08:08:28;102082.00;;;19.19;41.97
60725;BME280;59881;36.722;-4.462;2024-01-25T08:10:54;102624.66;;;23.24;39.79
60725;BME280;59881;36.722;-4.462;2024-01-25T08:13:19;101868.84;;;19.64;38.71
60725;BME280;59881;36.722;-4.462;2024-01-25T08:15:45;102558.97;;;24.42;37.06
60725;BME280;59881;36.722;-4.462;2024-01-25T08:18:11;102564.94;;;24.83;35.75
60725;BME280;59881;36.722;-4.462;2024-01-25T08:20:39;102564.63;;;25.04;35.50
60725;BME280;59881;36.722;-4.462;2024-01-25T08:23:05;102446.56;;;24.71;34.52
60725;BME280;59881;36.722;-4.462;2024-01-25T08:25:33;102454.72;;;25.33;33.72
60725;BME280;59881;36.722;-4.462;2024-01-25T08:27:59;102374.38;;;25.01;33.04
60725;BME280;59881;36.722;-4.462;2024-01-25T08:30:24;102609.72;;;27.22;31.33
60725;BME280;59881;36.722;-4.462;2024-01-25T08:32:50;102642.28;;;27.71;30.36
60725;BME280;59881;36.722;-4.462;2024-01-25T08:35:17;102000.47;;;24.16;29.75
60725;BME280;59881;36.722;-4.462;2024-01-25T08:37:42;102201.47;;;25.30;30.40
60725;BME280;59881;36.722;-4.462;2024-01-25T08:40:09;102479.50;;;27.09;30.23
60725;BME280;59881;36.722;-4.462;2024-01-25T08:42:35;102573.38;;;27.98;29.94
60725;BME280;59881;36.722;-4.462;2024-01-25T08:45:01;102384.91;;;27.56;28.90
60725;BME280;59881;36.722;-4.462;2024-01-25T08:47:27;102476.81;;;28.61;27.81
60725;BME280;59881;36.722;-4.462;2024-01-25T08:49:52;102639.81;;;30.44;26.41
60725;BME280;59881;36.722;-4.462;2024-01-25T08:52:18;102582.47;;;31.33;25.66
60725;BME280;59881;36.722;-4.462;2024-01-25T08:54:44;102266.59;;;29.99;24.56
60725;BME280;59881;36.722;-4.462;2024-01-25T08:57:11;102375.97;;;31.02;24.33
60725;BME280;59881;36.722;-4.462;2024-01-25T08:59:36;102601.47;;;32.61;23.39
60725;BME280;59881;36.722;-4.462;2024-01-25T09:02:06;102487.13;;;32.18;23.29
60725;BME280;59881;36.722;-4.462;2024-01-25T09:04:32;102610.56;;;32.68;23.01
60725;BME280;59881;36.722;-4.462;2024-01-25T09:06:58;102573.00;;;32.70;23.15
60725;BME280;59881;36.722;-4.462;2024-01-25T09:09:24;102601.16;;;32.43;23.14
60725;BME280;59881;36.722;-4.462;2024-01-25T09:11:49;102421.09;;;30.75;24.19
60725;BME280;59881;36.722;-4.462;2024-01-25T09:14:15;102180.81;;;29.17;23.98
60725;BME280;59881;36.722;-4.462;2024-01-25T09:16:40;102346.59;;;30.11;24.38
60725;BME280;59881;36.722;-4.462;2024-01-25T09:19:06;102475.41;;;31.05;23.79
60725;BME280;59881;36.722;-4.462;2024-01-25T09:21:31;102625.47;;;31.81;24.49
60725;BME280;59881;36.722;-4.462;2024-01-25T09:23:57;102381.78;;;30.35;24.17
60725;BME280;59881;36.722;-4.462;2024-01-25T09:26:22;102588.72;;;32.27;23.89
60725;BME280;59881;36.722;-4.462;2024-01-25T09:28:48;102639.91;;;33.08;23.05
60725;BME280;59881;36.722;-4.462;2024-01-25T09:31:14;102043.28;;;30.45;22.68
60725;BME280;59881;36.722;-4.462;2024-01-25T09:33:39;102634.88;;;34.58;21.93
60725;BME280;59881;36.722;-4.462;2024-01-25T09:36:05;102223.47;;;33.50;20.61
60725;BME280;59881;36.722;-4.462;2024-01-25T09:38:31;102601.53;;;37.36;19.49
60725;BME280;59881;36.722;-4.462;2024-01-25T09:40:57;102341.91;;;36.25;18.27
60725;BME280;59881;36.722;-4.462;2024-01-25T09:43:22;102206.47;;;36.08;18.42
60725;BME280;59881;36.722;-4.462;2024-01-25T09:45:53;102575.88;;;39.27;17.75
60725;BME280;59881;36.722;-4.462;2024-01-25T09:48:22;102167.69;;;37.56;16.99
60725;BME280;59881;36.722;-4.462;2024-01-25T09:50:48;102296.03;;;38.98;16.03
60725;BME280;59881;36.722;-4.462;2024-01-25T09:53:21;102605.47;;;41.15;16.00
60725;BME280;59881;36.722;-4.462;2024-01-25T09:56:01;102610.72;;;41.49;15.67
60725;BME280;59881;36.722;-4.462;2024-01-25T09:58:37;102574.78;;;41.96;15.07
60725;BME280;59881;36.722;-4.462;2024-01-25T10:01:03;102584.56;;;43.18;15.46
60725;BME280;59881;36.722;-4.462;2024-01-25T10:03:29;102469.38;;;43.67;14.73
60725;BME280;59881;36.722;-4.462;2024-01-25T10:05:55;102579.81;;;45.25;14.02
60725;BME280;59881;36.722;-4.462;2024-01-25T10:08:21;102484.78;;;45.41;13.68
60725;BME280;59881;36.722;-4.462;2024-01-25T10:10:49;102554.13;;;45.86;13.36
60725;BME280;59881;36.722;-4.462;2024-01-25T10:13:15;102349.59;;;44.63;13.71
60725;BME280;59881;36.722;-4.462;2024-01-25T10:15:40;102366.97;;;45.27;14.57
60725;BME280;59881;36.722;-4.462;2024-01-25T10:18:10;102594.03;;;47.00;13.53
60725;BME280;59881;36.722;-4.462;2024-01-25T10:20:44;102580.75;;;47.85;12.81
60725;BME280;59881;36.722;-4.462;2024-01-25T10:23:10;102398.56;;;47.38;11.97
60725;BME280;59881;36.722;-4.462;2024-01-25T10:25:36;102419.44;;;47.68;12.15
60725;BME280;59881;36.722;-4.462;2024-01-25T10:28:06;102586.88;;;49.19;11.67
60725;BME280;59881;36.722;-4.462;2024-01-25T10:30:34;102573.41;;;49.61;11.35
60725;BME280;59881;36.722;-4.462;2024-01-25T10:33:00;102572.25;;;50.11;11.16
60725;BME280;59881;36.722;-4.462;2024-01-25T10:35:26;102571.97;;;50.74;11.00
60725;BME280;59881;36.722;-4.462;2024-01-25T10:37:53;102562.66;;;50.90;10.58
60725;BME280;59881;36.722;-4.462;2024-01-25T10:40:20;102579.44;;;51.17;10.57
60725;BME280;59881;36.722;-4.462;2024-01-25T10:42:46;102573.22;;;51.11;10.03
60725;BME280;59881;36.722;-4.462;2024-01-25T10:45:12;102567.63;;;50.85;10.33
60725;BME280;59881;36.722;-4.462;2024-01-25T10:47:38;102575.25;;;50.41;10.72
60725;BME280;59881;36.722;-4.462;2024-01-25T10:50:07;102580.78;;;49.48;12.13
60725;BME280;59881;36.722;-4.462;2024-01-25T10:52:34;102578.06;;;48.81;12.12
60725;BME280;59881;36.722;-4.462;2024-01-25T10:55:01;102286.19;;;46.55;12.46
60725;BME280;59881;36.722;-4.462;2024-01-25T10:57:35;102536.50;;;47.51;12.47
60725;BME280;59881;36.722;-4.462;2024-01-25T11:00:02;102332.44;;;45.71;12.47
60725;BME280;59881;36.722;-4.462;2024-01-25T11:02:29;102552.38;;;46.71;13.25
60725;BME280;59881;36.722;-4.462;2024-01-25T11:04:55;102542.91;;;46.53;13.23
60725;BME280;59881;36.722;-4.462;2024-01-25T11:07:20;102546.81;;;45.13;13.84
60725;BME280;59881;36.722;-4.462;2024-01-25T11:09:50;102569.59;;;38.69;18.69
60725;BME280;59881;36.722;-4.462;2024-01-25T11:12:18;102319.59;;;31.66;23.87
60725;BME280;59881;36.722;-4.462;2024-01-25T11:14:44;102635.34;;;29.76;27.26
60725;BME280;59881;36.722;-4.462;2024-01-25T11:17:22;102590.16;;;27.69;29.92
60725;BME280;59881;36.722;-4.462;2024-01-25T11:19:49;102574.50;;;26.29;31.91
60725;BME280;59881;36.722;-4.462;2024-01-25T11:22:18;102578.72;;;25.43;33.67
60725;BME280;59881;36.722;-4.462;2024-01-25T11:24:45;102574.78;;;24.92;34.59
60725;BME280;59881;36.722;-4.462;2024-01-25T11:27:11;102505.28;;;24.03;33.81
60725;BME280;59881;36.722;-4.462;2024-01-25T11:29:38;102543.84;;;23.93;33.55
60725;BME280;59881;36.722;-4.462;2024-01-25T11:32:05;102552.19;;;23.71;33.42
60725;BME280;59881;36.722;-4.462;2024-01-25T11:34:31;102566.22;;;23.35;32.60
60725;BME280;59881;36.722;-4.462;2024-01-25T11:36:57;102564.03;;;23.00;32.99
60725;BME280;59881;36.722;-4.462;2024-01-25T11:39:23;102548.66;;;22.71;33.13
60725;BME280;59881;36.722;-4.462;2024-01-25T11:41:51;102554.13;;;22.50;33.39
60725;BME280;59881;36.722;-4.462;2024-01-25T11:44:17;102529.94;;;22.20;33.79
60725;BME280;59881;36.722;-4.462;2024-01-25T11:46:43;102543.44;;;22.08;33.87
60725;BME280;59881;36.722;-4.462;2024-01-25T11:49:08;102544.69;;;21.83;34.25
60725;BME280;59881;36.722;-4.462;2024-01-25T11:51:34;102532.09;;;21.63;34.25
60725;BME280;59881;36.722;-4.462;2024-01-25T11:54:00;102523.66;;;21.46;34.66
60725;BME280;59881;36.722;-4.462;2024-01-25T11:56:31;102481.09;;;21.21;34.63
60725;BME280;59881;36.722;-4.462;2024-01-25T11:58:58;102565.59;;;21.36;34.86
60725;BME280;59881;36.722;-4.462;2024-01-25T12:01:24;102515.69;;;21.24;35.14
60725;BME280;59881;36.722;-4.462;2024-01-25T12:03:50;102526.19;;;21.16;34.93
60725;BME280;59881;36.722;-4.462;2024-01-25T12:06:17;102515.09;;;21.20;35.35
60725;BME280;59881;36.722;-4.462;2024-01-25T12:08:44;102131.44;;;18.91;35.33
60725;BME280;59881;36.722;-4.462;2024-01-25T12:11:11;102449.03;;;20.66;35.49
60725;BME280;59881;36.722;-4.462;2024-01-25T12:13:42;102493.91;;;21.17;35.41
60725;BME280;59881;36.722;-4.462;2024-01-25T12:16:08;102489.75;;;21.24;35.64
60725;BME280;59881;36.722;-4.462;2024-01-25T12:18:34;102489.00;;;21.22;35.23
60725;BME280;59881;36.722;-4.462;2024-01-25T12:21:05;102423.41;;;20.84;35.13
60725;BME280;59881;36.722;-4.462;2024-01-25T12:23:35;102473.44;;;21.16;35.09
60725;BME280;59881;36.722;-4.462;2024-01-25T12:26:06;102131.66;;;18.76;35.23
60725;BME280;59881;36.722;-4.462;2024-01-25T12:28:31;101988.25;;;18.33;35.04
60725;BME280;59881;36.722;-4.462;2024-01-25T12:30:59;102466.13;;;21.18;35.15
60725;BME280;59881;36.722;-4.462;2024-01-25T12:33:25;102191.38;;;19.54;34.91
60725;BME280;59881;36.722;-4.462;2024-01-25T12:35:51;102325.91;;;20.43;34.94
60725;BME280;59881;36.722;-4.462;2024-01-25T12:38:20;102510.88;;;21.06;34.49
60725;BME280;59881;36.722;-4.462;2024-01-25T12:40:48;102434.69;;;20.99;34.79